M I D A S
Marine Information and Data Acquisition System
Tripno 1701 of the Zeeleeuw from 2009-05-28 06:58:06 to 2009-05-28 15:08:03
Back to CruiseResearch ActivitiesStationsMapUnderway DataData graphs

EquipmentUnitsComment
TimeDGPSUTC
LatitudeDGPSDM.mWGS84
LongitudeDGPSDM.mWGS84
HeadingGyrodeg 
SOGDGPSknotsSpeed over ground
COGDGPSdegCourse over ground
DepthEcho soundermeters200 kHz
Missing or incorrect values are displayed as -999
Navigation data collected by the RV Zeeleeuw from 2009-05-28 07:10:27 to 2009-05-28 15:17:22
                                                                                    Next 1000 lines
Time Latitude Longitude Heading SOG COG Depth
2009-05-28 07:10:37 51°13.663 2°55.956 112.5 1 288 5.5
2009-05-28 07:10:42 51°13.664 2°55.954 112.5 1.3 295 5.6
2009-05-28 07:10:48 51°13.665 2°55.95 112.8 1.6 293 5.6
2009-05-28 07:10:52 51°13.665 2°55.947 113.3 1.8 296 5.7
2009-05-28 07:10:58 51°13.667 2°55.943 113.5 1.9 295 -999
2009-05-28 07:11:04 51°13.669 2°55.938 113.9 2.1 298 -999
2009-05-28 07:11:09 51°13.67 2°55.933 114 2.3 297 -999
2009-05-28 07:11:15 51°13.672 2°55.928 114 2.4 298 -999
2009-05-28 07:11:20 51°13.673 2°55.923 113.8 2.5 296 -999
2009-05-28 07:11:26 51°13.675 2°55.917 113.5 2.7 297 -999
2009-05-28 07:11:31 51°13.677 2°55.911 113 2.7 296 -999
2009-05-28 07:11:36 51°13.679 2°55.905 112.4 2.8 296 -999
2009-05-28 07:11:41 51°13.68 2°55.9 111.7 2.9 294 -999
2009-05-28 07:11:46 51°13.682 2°55.894 111.1 3 294 -999
2009-05-28 07:11:51 51°13.684 2°55.887 110.5 3.1 293 -999
2009-05-28 07:11:56 51°13.686 2°55.881 109.9 3.1 293 -999
2009-05-28 07:12:01 51°13.687 2°55.875 109.3 3.2 292 -999
2009-05-28 07:12:06 51°13.689 2°55.868 108.3 3.2 291 -999
2009-05-28 07:12:11 51°13.69 2°55.862 106.8 3.2 290 -999
2009-05-28 07:12:16 51°13.692 2°55.855 105.6 3.2 289 -999
2009-05-28 07:12:21 51°13.693 2°55.848 104 3.2 287 -999
2009-05-28 07:12:26 51°13.694 2°55.841 102.2 3.2 286 -999
2009-05-28 07:12:31 51°13.695 2°55.834 100.3 3.2 284 -999
2009-05-28 07:12:36 51°13.696 2°55.827 98.4 3.2 283 -999
2009-05-28 07:12:41 51°13.697 2°55.821 96.5 3.1 282 -999
2009-05-28 07:12:46 51°13.698 2°55.814 94.5 3.1 279 -999
2009-05-28 07:12:51 51°13.698 2°55.807 92.6 3 277 -999
2009-05-28 07:12:56 51°13.699 2°55.801 90.7 3 276 -999
2009-05-28 07:13:01 51°13.699 2°55.794 88.7 2.9 274 -999
2009-05-28 07:13:06 51°13.699 2°55.788 86.8 2.9 273 -999
2009-05-28 07:13:11 51°13.699 2°55.782 84.6 2.7 271 -999
2009-05-28 07:13:16 51°13.699 2°55.776 83.2 2.6 270 -999
2009-05-28 07:13:21 51°13.699 2°55.77 81.6 2.5 269 11.6
2009-05-28 07:13:26 51°13.699 2°55.765 80.5 2.4 268 -999
2009-05-28 07:13:31 51°13.699 2°55.76 79.1 2.3 267 -999
2009-05-28 07:13:36 51°13.698 2°55.755 77.5 2.1 267 12.5
2009-05-28 07:13:40 51°13.698 2°55.752 76.5 1.9 266 12.5
2009-05-28 07:13:45 51°13.698 2°55.748 75.7 1.6 269 12.4
2009-05-28 07:13:50 51°13.698 2°55.746 74.4 1 274 12.5
2009-05-28 07:13:55 51°13.699 2°55.744 71.8 0.7 293 12.6
2009-05-28 07:14:00 51°13.699 2°55.743 67.6 0.5 317 12.6
2009-05-28 07:14:05 51°13.7 2°55.743 64 0.5 355 12.4
2009-05-28 07:14:10 51°13.701 2°55.743 59 0.6 4 12.3
2009-05-28 07:14:15 51°13.701 2°55.744 53.7 0.6 10 12.2
2009-05-28 07:14:20 51°13.703 2°55.744 47.9 0.7 12 12
2009-05-28 07:14:24 51°13.703 2°55.744 44.7 0.7 14 12
2009-05-28 07:14:29 51°13.704 2°55.745 40.2 0.8 19 12
2009-05-28 07:14:34 51°13.706 2°55.745 37.5 0.9 18 12.1
2009-05-28 07:14:39 51°13.707 2°55.746 32.7 0.8 15 12.4
2009-05-28 07:14:44 51°13.707 2°55.746 29.4 0.8 13 12.7
2009-05-28 07:14:48 51°13.708 2°55.746 26.9 0.6 10 12.7
2009-05-28 07:14:53 51°13.709 2°55.746 25.1 0.3 355 12.7
2009-05-28 07:14:58 51°13.709 2°55.746 22.6 0.1 313 12.6
2009-05-28 07:15:03 51°13.709 2°55.746 20.2 0.2 226 12.5
2009-05-28 07:15:08 51°13.708 2°55.745 17.9 0.4 214 12.4
2009-05-28 07:15:12 51°13.708 2°55.745 15.4 0.6 203 12.4
2009-05-28 07:15:17 51°13.707 2°55.744 14.1 0.8 200 12.5
2009-05-28 07:15:22 51°13.705 2°55.743 12.6 1 197 12.3
2009-05-28 07:15:28 51°13.704 2°55.743 11 1.1 197 12.1
2009-05-28 07:15:32 51°13.703 2°55.742 9.8 1 196 5.9
2009-05-28 07:15:38 51°13.701 2°55.741 9 0.9 199 -999
2009-05-28 07:15:44 51°13.7 2°55.741 8.2 0.6 201 -999
2009-05-28 07:15:49 51°13.7 2°55.74 7.3 0.2 239 4.6
2009-05-28 07:15:55 51°13.7 2°55.74 5.1 0.4 326 -999
2009-05-28 07:16:00 51°13.701 2°55.739 1.7 0.6 338 12.3
2009-05-28 07:16:05 51°13.702 2°55.739 358.9 1 343 12.1
2009-05-28 07:16:10 51°13.704 2°55.738 356.1 1.4 344 12
2009-05-28 07:16:15 51°13.706 2°55.737 352.1 1.8 341 12
2009-05-28 07:16:20 51°13.709 2°55.735 346.7 2.3 339 4.8
2009-05-28 07:16:24 51°13.712 2°55.733 342.5 2.7 337 11.6
2009-05-28 07:16:29 51°13.716 2°55.73 339.6 3 333 11.6
2009-05-28 07:16:34 51°13.72 2°55.727 336.1 3.4 333 12.1
2009-05-28 07:16:39 51°13.724 2°55.723 333.9 3.8 331 11.3
2009-05-28 07:16:44 51°13.729 2°55.718 332.6 4.1 330 11.3
2009-05-28 07:16:49 51°13.735 2°55.713 331.6 4.5 330 11.3
2009-05-28 07:16:54 51°13.74 2°55.708 330.9 4.8 329 11.4
2009-05-28 07:16:58 51°13.745 2°55.703 330.4 5.1 330 11.2
2009-05-28 07:17:03 51°13.751 2°55.697 330.4 5.4 329 10.5
2009-05-28 07:17:08 51°13.758 2°55.691 330.4 5.6 330 10
2009-05-28 07:17:13 51°13.765 2°55.684 330.8 5.8 329 10
2009-05-28 07:17:18 51°13.772 2°55.678 331.7 6 331 10
2009-05-28 07:17:23 51°13.78 2°55.671 333 6.2 332 10.1
2009-05-28 07:17:28 51°13.788 2°55.665 334.4 6.3 333 10.1
2009-05-28 07:17:32 51°13.794 2°55.66 335.8 6.5 334 10.1
2009-05-28 07:17:36 51°13.801 2°55.655 337.2 6.6 336 10.1
2009-05-28 07:17:42 51°13.811 2°55.647 337.2 6.7 333 10
2009-05-28 07:17:47 51°13.819 2°55.64 336 6.8 334 10.1
2009-05-28 07:17:52 51°13.828 2°55.633 335.5 6.9 334 9.9
2009-05-28 07:17:57 51°13.837 2°55.627 335.6 7 335 9.9
2009-05-28 07:18:03 51°13.847 2°55.619 336.9 7.1 336 10.1
2009-05-28 07:18:07 51°13.855 2°55.614 338.2 7.1 337 10.2
2009-05-28 07:18:12 51°13.864 2°55.608 338.4 7.2 336 10.2
2009-05-28 07:18:17 51°13.873 2°55.601 338 7.3 337 10.2
2009-05-28 07:18:22 51°13.882 2°55.595 338 7.3 337 10.3
2009-05-28 07:18:27 51°13.892 2°55.589 338.2 7.4 337 10.3
2009-05-28 07:18:32 51°13.901 2°55.582 338.2 7.4 337 10.3
2009-05-28 07:18:37 51°13.911 2°55.576 337.9 7.5 337 10.3
2009-05-28 07:18:43 51°13.922 2°55.568 337.7 7.5 337 10.3
2009-05-28 07:18:47 51°13.93 2°55.563 338.3 7.5 338 10.3
2009-05-28 07:18:52 51°13.94 2°55.556 338.9 7.5 338 10.4
2009-05-28 07:18:57 51°13.95 2°55.55 338.9 7.5 338 10.3
2009-05-28 07:19:03 51°13.961 2°55.542 338.9 7.5 337 10.4
2009-05-28 07:19:07 51°13.969 2°55.537 339.1 7.5 338 10.4
2009-05-28 07:19:12 51°13.979 2°55.531 339 7.5 337 10.3
2009-05-28 07:19:17 51°13.988 2°55.524 338.2 7.5 336 10.4
2009-05-28 07:19:23 51°14 2°55.516 337.6 7.5 337 10.3
2009-05-28 07:19:27 51°14.007 2°55.511 337.6 7.5 336 10.3
2009-05-28 07:19:32 51°14.017 2°55.504 337.6 7.5 336 10.3
2009-05-28 07:19:37 51°14.026 2°55.497 337.2 7.5 335 10.2
2009-05-28 07:19:42 51°14.036 2°55.49 336.6 7.5 335 10.2
2009-05-28 07:19:48 51°14.047 2°55.482 336.2 7.6 335 10.2
2009-05-28 07:19:52 51°14.055 2°55.476 336.6 7.7 336 10.2
2009-05-28 07:19:57 51°14.065 2°55.469 336.9 7.8 335 10.2
2009-05-28 07:20:03 51°14.077 2°55.46 335.8 8 334 10.2
2009-05-28 07:20:07 51°14.085 2°55.453 335.2 8.1 333 10.2
2009-05-28 07:20:12 51°14.095 2°55.445 334.9 8.2 333 10.2
2009-05-28 07:20:17 51°14.105 2°55.437 334.7 8.3 334 10.1
2009-05-28 07:20:23 51°14.118 2°55.427 335.9 8.4 335 10.1
2009-05-28 07:20:27 51°14.126 2°55.421 336.7 8.4 335 10.1
2009-05-28 07:20:32 51°14.137 2°55.413 336.3 8.5 333 10.1
2009-05-28 07:20:37 51°14.148 2°55.404 335.4 8.7 334 10.1
2009-05-28 07:20:42 51°14.158 2°55.395 334.7 8.7 332 10
2009-05-28 07:20:47 51°14.169 2°55.386 333.5 8.8 331 10
2009-05-28 07:20:52 51°14.18 2°55.376 332 8.9 330 10.1
2009-05-28 07:20:57 51°14.19 2°55.366 331.1 8.9 329 10
2009-05-28 07:21:03 51°14.203 2°55.353 329.6 9 326 10.1
2009-05-28 07:21:07 51°14.211 2°55.344 328.2 9 326 10.1
2009-05-28 07:21:12 51°14.221 2°55.332 327.4 9 324 10.1
2009-05-28 07:21:17 51°14.231 2°55.32 325.7 9 321 10.2
2009-05-28 07:21:23 51°14.242 2°55.304 322.1 9 317 10.2
2009-05-28 07:21:27 51°14.249 2°55.293 318 9.1 315 10.3
2009-05-28 07:21:32 51°14.258 2°55.278 315.5 9.2 313 10.2
2009-05-28 07:21:37 51°14.267 2°55.263 314.1 9.3 313 10.1
2009-05-28 07:21:43 51°14.277 2°55.244 313.2 9.4 311 10.1
2009-05-28 07:21:48 51°14.286 2°55.229 312.9 9.5 312 10
2009-05-28 07:21:52 51°14.293 2°55.216 313.3 9.5 312 10.1
2009-05-28 07:21:57 51°14.302 2°55.201 313.3 9.6 312 10.1
2009-05-28 07:22:02 51°14.311 2°55.185 312.5 9.7 311 10.2
2009-05-28 07:22:07 51°14.319 2°55.168 312.2 9.7 312 10.2
2009-05-28 07:22:12 51°14.329 2°55.152 312.6 9.8 312 10.2
2009-05-28 07:22:17 51°14.338 2°55.136 313.2 9.9 313 10.3
2009-05-28 07:22:22 51°14.347 2°55.12 313.6 9.9 312 10.2
2009-05-28 07:22:28 51°14.358 2°55.1 313.7 10 312 10.1
2009-05-28 07:22:32 51°14.366 2°55.087 312.9 10.1 311 10.2
2009-05-28 07:22:37 51°14.375 2°55.07 312 10.2 310 10.4
2009-05-28 07:22:43 51°14.386 2°55.048 311 10.4 308 10.1
2009-05-28 07:22:47 51°14.393 2°55.033 310 10.5 308 10.1
2009-05-28 07:22:52 51°14.402 2°55.014 308.9 10.8 306 10
2009-05-28 07:22:57 51°14.411 2°54.995 308.3 11 307 10
2009-05-28 07:23:02 51°14.42 2°54.975 308.9 11.1 307 9.8
2009-05-28 07:23:07 51°14.429 2°54.955 309.5 11.3 306 10
2009-05-28 07:23:12 51°14.438 2°54.935 309.2 11.5 305 10.1
2009-05-28 07:23:17 51°14.448 2°54.914 308.9 11.6 306 10
2009-05-28 07:23:23 51°14.459 2°54.889 309.8 11.6 307 10.1
2009-05-28 07:23:27 51°14.468 2°54.873 312.5 11.7 309 9.9
2009-05-28 07:23:32 51°14.478 2°54.852 313.6 11.8 307 10.2
2009-05-28 07:23:38 51°14.49 2°54.828 314.4 11.8 310 10
2009-05-28 07:23:42 51°14.499 2°54.812 316 11.9 310 10
2009-05-28 07:23:47 51°14.509 2°54.792 317.2 11.9 311 10
2009-05-28 07:23:52 51°14.52 2°54.772 318 11.9 311 10
2009-05-28 07:23:57 51°14.532 2°54.753 318.6 11.9 313 9.8
2009-05-28 07:24:03 51°14.545 2°54.729 319.4 12 312 10
2009-05-28 07:24:07 51°14.554 2°54.714 319.4 11.9 313 9.7
2009-05-28 07:24:12 51°14.565 2°54.694 320 12 314 9.8
2009-05-28 07:24:17 51°14.577 2°54.675 321.1 11.9 315 9.6
2009-05-28 07:24:22 51°14.589 2°54.657 321.5 11.9 315 9.6
2009-05-28 07:24:27 51°14.601 2°54.639 322.3 11.9 317 9.6
2009-05-28 07:24:32 51°14.613 2°54.62 322.6 12 316 9.7
2009-05-28 07:24:37 51°14.625 2°54.602 322.7 11.9 317 9.6
2009-05-28 07:24:42 51°14.637 2°54.585 324 11.8 320 9.7
2009-05-28 07:24:48 51°14.652 2°54.564 325.1 11.9 318 9.5
2009-05-28 07:24:52 51°14.662 2°54.551 325.1 11.9 320 9.7
2009-05-28 07:24:57 51°14.675 2°54.534 325.3 11.9 320 9.8
2009-05-28 07:25:03 51°14.69 2°54.515 326 11.8 322 9.7
2009-05-28 07:25:07 51°14.7 2°54.502 326.5 11.9 321 9.9
2009-05-28 07:25:12 51°14.713 2°54.486 326.8 11.8 323 9.7
2009-05-28 07:25:17 51°14.727 2°54.47 327.4 11.8 322 9.6
2009-05-28 07:25:22 51°14.739 2°54.454 327.5 11.8 322 9.7
2009-05-28 07:25:27 51°14.752 2°54.438 327.4 11.8 323 9.7
2009-05-28 07:25:32 51°14.765 2°54.423 327.6 11.8 323 9.4
2009-05-28 07:25:37 51°14.778 2°54.407 327.4 11.8 322 9.6
2009-05-28 07:25:43 51°14.794 2°54.388 327.4 11.8 323 9.3
2009-05-28 07:25:47 51°14.804 2°54.375 327.1 11.8 322 9.4
2009-05-28 07:25:52 51°14.817 2°54.359 326.9 11.8 323 9.5
2009-05-28 07:25:58 51°14.833 2°54.341 327.4 11.7 325 9.4
2009-05-28 07:26:03 51°14.847 2°54.326 328.9 11.8 325 9.7
2009-05-28 07:26:08 51°14.86 2°54.311 329.2 11.7 325 9.2
2009-05-28 07:26:12 51°14.871 2°54.3 330 11.7 325 9.1
2009-05-28 07:26:17 51°14.884 2°54.285 329.9 11.7 325 9
2009-05-28 07:26:22 51°14.897 2°54.271 330.2 11.7 326 8.8
2009-05-28 07:26:28 51°14.914 2°54.254 330.7 11.7 327 8.8
2009-05-28 07:26:32 51°14.925 2°54.243 331.4 11.7 327 8.5
2009-05-28 07:26:36 51°14.935 2°54.231 331.6 11.7 327 8.7
2009-05-28 07:26:42 51°14.951 2°54.215 331.7 11.6 328 8.4
2009-05-28 07:26:47 51°14.965 2°54.201 332.4 11.6 327 8.6
2009-05-28 07:26:52 51°14.979 2°54.188 332.3 11.6 328 8.3
2009-05-28 07:26:57 51°14.992 2°54.174 332.4 11.6 327 8.4
2009-05-28 07:27:03 51°15.008 2°54.158 332.5 11.6 328 8.5
2009-05-28 07:27:07 51°15.019 2°54.147 332.4 11.6 327 8.5
2009-05-28 07:27:12 51°15.033 2°54.133 332.1 11.6 328 8.6
2009-05-28 07:27:17 51°15.046 2°54.119 331.8 11.6 326 8.4
2009-05-28 07:27:22 51°15.06 2°54.105 331.8 11.6 327 8.5
2009-05-28 07:27:27 51°15.073 2°54.091 332 11.7 327 8.5
2009-05-28 07:27:32 51°15.087 2°54.077 332.2 11.7 327 8.6
2009-05-28 07:27:37 51°15.1 2°54.063 332 11.7 326 8.7
2009-05-28 07:27:43 51°15.117 2°54.046 331.9 11.7 327 8.9
2009-05-28 07:27:47 51°15.128 2°54.035 332.4 11.7 328 8.8
2009-05-28 07:27:52 51°15.142 2°54.021 332.7 11.7 328 8.8
2009-05-28 07:27:58 51°15.159 2°54.006 333.4 11.7 329 8.9
2009-05-28 07:28:03 51°15.173 2°53.993 334.1 11.7 329 8.8
2009-05-28 07:28:07 51°15.184 2°53.982 333.8 11.7 330 8.8
2009-05-28 07:28:12 51°15.198 2°53.97 334.7 11.7 331 8.8
2009-05-28 07:28:17 51°15.212 2°53.957 334.8 11.7 331 9
2009-05-28 07:28:23 51°15.229 2°53.942 335.4 11.7 331 8.8
2009-05-28 07:28:27 51°15.24 2°53.932 334.7 11.6 330 8.7
2009-05-28 07:28:32 51°15.254 2°53.919 335 11.6 330 8.8
2009-05-28 07:28:37 51°15.268 2°53.906 334.4 11.6 329 8.8
2009-05-28 07:28:43 51°15.284 2°53.89 333.8 11.6 329 8.9
2009-05-28 07:28:48 51°15.299 2°53.878 334.6 11.7 331 9.3
2009-05-28 07:28:52 51°15.31 2°53.868 335.4 11.7 331 9.2
2009-05-28 07:28:57 51°15.324 2°53.856 336.5 11.6 333 9.3
2009-05-28 07:29:02 51°15.338 2°53.843 336.9 11.6 331 9.2
2009-05-28 07:29:07 51°15.352 2°53.831 336.3 11.6 330 9.2
2009-05-28 07:29:12 51°15.366 2°53.818 336.1 11.6 331 9.4
2009-05-28 07:29:17 51°15.381 2°53.806 336.1 11.7 331 9.8
2009-05-28 07:29:22 51°15.395 2°53.793 335.5 11.6 331 9.4
2009-05-28 07:29:27 51°15.409 2°53.781 336.6 11.7 331 9.5
2009-05-28 07:29:32 51°15.423 2°53.769 336.1 11.6 331 9.4
2009-05-28 07:29:37 51°15.437 2°53.756 336.1 11.7 332 9.7
2009-05-28 07:29:43 51°15.455 2°53.742 337 11.7 332 9.6
2009-05-28 07:29:47 51°15.466 2°53.732 337.5 11.6 333 9.6
2009-05-28 07:29:52 51°15.481 2°53.721 338.2 11.6 333 9.8
2009-05-28 07:29:57 51°15.495 2°53.709 338.3 11.7 333 9.7
2009-05-28 07:30:02 51°15.509 2°53.697 337.7 11.7 332 9.9
2009-05-28 07:30:07 51°15.523 2°53.685 338.1 11.7 333 9.8
2009-05-28 07:30:12 51°15.538 2°53.674 338.1 11.6 334 10.1
2009-05-28 07:30:17 51°15.552 2°53.662 338.7 11.6 332 10.1
2009-05-28 07:30:23 51°15.57 2°53.648 338.1 11.7 334 10.2
2009-05-28 07:30:27 51°15.581 2°53.638 338.2 11.6 332 10.1
2009-05-28 07:30:32 51°15.595 2°53.627 338.3 11.7 334 10.7
2009-05-28 07:30:36 51°15.607 2°53.618 338.6 11.6 333 10.4
2009-05-28 07:30:43 51°15.627 2°53.601 338.6 11.7 333 10.7
2009-05-28 07:30:47 51°15.639 2°53.592 338.8 11.6 333 10.8
2009-05-28 07:30:52 51°15.653 2°53.58 338.3 11.7 333 10.6
2009-05-28 07:30:57 51°15.667 2°53.568 338.3 11.7 331 10.7
2009-05-28 07:31:02 51°15.682 2°53.556 337.9 11.7 334 11
2009-05-28 07:31:07 51°15.696 2°53.544 338.5 11.7 332 11.3
2009-05-28 07:31:12 51°15.711 2°53.532 338.6 11.7 332 11
2009-05-28 07:31:17 51°15.725 2°53.52 338.8 11.8 333 11.2
2009-05-28 07:31:22 51°15.739 2°53.508 338.3 11.8 332 11.4
2009-05-28 07:31:27 51°15.754 2°53.496 338.3 11.7 333 11.5
2009-05-28 07:31:32 51°15.768 2°53.484 339 11.8 332 11.4
2009-05-28 07:31:37 51°15.783 2°53.472 338.5 11.8 332 11.5
2009-05-28 07:31:43 51°15.8 2°53.457 338.3 11.8 333 11.6
2009-05-28 07:31:47 51°15.812 2°53.448 338.7 11.8 333 11.1
2009-05-28 07:31:52 51°15.826 2°53.435 338.6 11.8 332 11.1
2009-05-28 07:31:57 51°15.841 2°53.423 338.3 11.8 333 11.1
2009-05-28 07:32:02 51°15.855 2°53.412 338.9 11.8 333 11.7
2009-05-28 07:32:07 51°15.87 2°53.399 338.5 11.8 332 11.7
2009-05-28 07:32:12 51°15.884 2°53.387 337.8 11.8 332 11.7
2009-05-28 07:32:17 51°15.899 2°53.375 338.2 11.9 333 11.7
2009-05-28 07:32:23 51°15.916 2°53.36 338.1 11.9 331 11.5
2009-05-28 07:32:27 51°15.928 2°53.35 337.6 11.8 332 11
2009-05-28 07:32:32 51°15.942 2°53.338 337.6 11.9 332 11.2
2009-05-28 07:32:37 51°15.957 2°53.326 337.9 11.9 333 11.5
2009-05-28 07:32:43 51°15.975 2°53.311 338.2 11.9 332 11.2
2009-05-28 07:32:47 51°15.986 2°53.301 337.9 11.9 332 11.5
2009-05-28 07:32:52 51°16.001 2°53.289 337.8 11.9 332 11.8
2009-05-28 07:32:57 51°16.016 2°53.277 338 11.8 333 11.2
2009-05-28 07:33:03 51°16.033 2°53.261 337.9 11.8 331 11.2
2009-05-28 07:33:08 51°16.047 2°53.249 337.1 11.8 332 11.3
2009-05-28 07:33:12 51°16.059 2°53.24 337.6 11.8 332 11.2
2009-05-28 07:33:17 51°16.073 2°53.227 337.2 11.8 331 11.8
2009-05-28 07:33:22 51°16.088 2°53.215 336.9 11.8 333 11.3
2009-05-28 07:33:27 51°16.102 2°53.202 337.6 11.8 332 11.4
2009-05-28 07:33:32 51°16.117 2°53.191 338.3 11.8 333 11.5
2009-05-28 07:33:37 51°16.131 2°53.178 338 11.9 331 11.5
2009-05-28 07:33:42 51°16.146 2°53.166 337.6 11.9 333 11.4
2009-05-28 07:33:48 51°16.163 2°53.151 337.6 11.8 331 11.3
2009-05-28 07:33:52 51°16.175 2°53.141 337.5 11.9 332 11.5
2009-05-28 07:33:57 51°16.19 2°53.129 338 11.8 333 11.2
2009-05-28 07:34:03 51°16.207 2°53.114 337.7 11.9 331 11.5
2009-05-28 07:34:07 51°16.218 2°53.104 336.8 11.9 332 11.5
2009-05-28 07:34:12 51°16.233 2°53.091 336.6 11.9 330 11.4
2009-05-28 07:34:17 51°16.247 2°53.079 336.4 11.9 331 11.4
2009-05-28 07:34:22 51°16.262 2°53.066 337 11.8 332 11.3
2009-05-28 07:34:27 51°16.276 2°53.054 337.4 11.9 332 11.6
2009-05-28 07:34:32 51°16.291 2°53.042 337.6 11.8 332 11.4
2009-05-28 07:34:37 51°16.305 2°53.03 337.7 11.8 332 11.4
2009-05-28 07:34:43 51°16.323 2°53.015 337.6 11.8 332 11.5
2009-05-28 07:34:47 51°16.334 2°53.005 337.2 11.8 332 11.5
2009-05-28 07:34:52 51°16.349 2°52.993 337.8 11.8 332 11.5
2009-05-28 07:34:57 51°16.363 2°52.98 337.4 11.8 332 11.3
2009-05-28 07:35:03 51°16.38 2°52.966 337.5 11.8 331 11.5
2009-05-28 07:35:07 51°16.392 2°52.956 337.1 11.8 332 11.6
2009-05-28 07:35:12 51°16.407 2°52.944 337.1 11.7 332 11.2
2009-05-28 07:35:17 51°16.421 2°52.931 337.5 11.8 330 11.1
2009-05-28 07:35:23 51°16.438 2°52.916 336.7 11.8 331 11.3
2009-05-28 07:35:27 51°16.45 2°52.906 336.5 11.8 331 11.4
2009-05-28 07:35:32 51°16.464 2°52.893 336.5 11.8 331 11.1
2009-05-28 07:35:37 51°16.479 2°52.881 336.8 11.8 332 11.2
2009-05-28 07:35:42 51°16.493 2°52.869 337.4 11.8 331 11.1
2009-05-28 07:35:47 51°16.507 2°52.857 337.6 11.8 333 11.1
2009-05-28 07:35:52 51°16.522 2°52.844 337.6 11.8 332 11.3
2009-05-28 07:35:57 51°16.536 2°52.832 338.1 11.7 333 11.1
2009-05-28 07:36:03 51°16.554 2°52.818 338 11.8 332 11.2
2009-05-28 07:36:07 51°16.565 2°52.808 337.9 11.9 333 11.2
2009-05-28 07:36:12 51°16.58 2°52.796 337.9 11.8 332 10.8
2009-05-28 07:36:17 51°16.594 2°52.784 337.7 11.8 332 10.9
2009-05-28 07:36:22 51°16.609 2°52.772 337.5 11.8 331 10.8
2009-05-28 07:36:27 51°16.623 2°52.76 337.1 11.8 332 10.7
2009-05-28 07:36:32 51°16.638 2°52.747 336.9 11.7 332 10.7
2009-05-28 07:36:37 51°16.652 2°52.735 336.6 11.7 331 10.4
2009-05-28 07:36:43 51°16.669 2°52.72 336.2 11.7 332 10.4
2009-05-28 07:36:47 51°16.681 2°52.711 337.3 11.7 334 10.4
2009-05-28 07:36:52 51°16.695 2°52.7 338.5 11.7 334 10.1
2009-05-28 07:36:57 51°16.71 2°52.688 338.3 11.7 334 9.7
2009-05-28 07:37:02 51°16.725 2°52.678 339.4 11.7 335 9.6
2009-05-28 07:37:07 51°16.739 2°52.667 339.9 11.6 336 9.2
2009-05-28 07:37:12 51°16.754 2°52.658 341.3 11.6 338 9.3
2009-05-28 07:37:17 51°16.769 2°52.648 342.4 11.6 338 9.1
2009-05-28 07:37:23 51°16.787 2°52.637 343.4 11.6 340 9.4
2009-05-28 07:37:27 51°16.799 2°52.63 344.1 11.6 339 9.3
2009-05-28 07:37:32 51°16.814 2°52.62 344.1 11.7 339 9.3
2009-05-28 07:37:37 51°16.829 2°52.611 344.1 11.7 338 9
2009-05-28 07:37:43 51°16.848 2°52.601 344.1 11.6 340 9
2009-05-28 07:37:47 51°16.86 2°52.594 344.4 11.6 341 9.2
2009-05-28 07:37:52 51°16.875 2°52.586 344.6 11.5 342 9.1
2009-05-28 07:37:57 51°16.891 2°52.58 348.6 11.5 347 9.2
2009-05-28 07:38:03 51°16.909 2°52.574 350.8 11.6 347 9.3
2009-05-28 07:38:08 51°16.925 2°52.57 352.7 11.5 351 9.4
2009-05-28 07:38:12 51°16.937 2°52.566 354.5 11.6 351 9.5
2009-05-28 07:38:17 51°16.953 2°52.563 356.3 11.6 353 9.4
2009-05-28 07:38:23 51°16.973 2°52.56 356.7 11.6 354 9.2
2009-05-28 07:38:28 51°16.989 2°52.557 357.9 11.5 354 9.1
2009-05-28 07:38:32 51°17.001 2°52.555 358.4 11.5 354 9.1
2009-05-28 07:38:37 51°17.017 2°52.553 358.7 11.5 356 9.2
2009-05-28 07:38:42 51°17.033 2°52.551 359.5 11.5 354 9
2009-05-28 07:38:47 51°17.049 2°52.549 359.8 11.5 355 9.2
2009-05-28 07:38:52 51°17.065 2°52.547 0.8 11.6 356 9
2009-05-28 07:38:57 51°17.081 2°52.545 0.8 11.5 356 8.9
2009-05-28 07:39:03 51°17.1 2°52.543 1.1 11.5 354 8.9
2009-05-28 07:39:07 51°17.113 2°52.542 0.8 11.5 356 9.1
2009-05-28 07:39:12 51°17.129 2°52.54 0.7 11.6 357 9
2009-05-28 07:39:17 51°17.145 2°52.538 0.5 11.6 355 9.2
2009-05-28 07:39:23 51°17.164 2°52.537 1.1 11.5 358 9.1
2009-05-28 07:39:27 51°17.177 2°52.535 1.3 11.5 356 9.2
2009-05-28 07:39:32 51°17.192 2°52.535 1.8 11.5 358 9.4
2009-05-28 07:39:37 51°17.208 2°52.533 1.6 11.5 358 9.5
2009-05-28 07:39:43 51°17.227 2°52.532 2.3 11.5 356 9.2
2009-05-28 07:39:48 51°17.243 2°52.531 1.7 11.5 358 9.5
2009-05-28 07:39:52 51°17.256 2°52.529 1.7 11.5 354 9.5
2009-05-28 07:39:57 51°17.272 2°52.528 1.2 11.5 359 9.4
2009-05-28 07:40:03 51°17.291 2°52.525 1.8 11.6 353 9.5
2009-05-28 07:40:08 51°17.307 2°52.524 0.5 11.5 359 9.4
2009-05-28 07:40:12 51°17.32 2°52.523 0.1 11.5 353 9.6
2009-05-28 07:40:17 51°17.335 2°52.52 359.9 11.4 357 9.8
2009-05-28 07:40:22 51°17.351 2°52.519 1.1 11.5 357 9.7
2009-05-28 07:40:28 51°17.37 2°52.516 1.1 11.5 355 9.7
2009-05-28 07:40:32 51°17.383 2°52.515 0.7 11.4 356 9.7
2009-05-28 07:40:36 51°17.396 2°52.513 1.5 11.5 357 9.9
2009-05-28 07:40:42 51°17.415 2°52.511 1.2 11.5 355 9.8
2009-05-28 07:40:47 51°17.431 2°52.51 1.5 11.5 357 9.8
2009-05-28 07:40:52 51°17.446 2°52.507 1.2 11.5 355 9.9
2009-05-28 07:40:57 51°17.462 2°52.505 0.4 11.5 356 9.9
2009-05-28 07:41:03 51°17.481 2°52.502 0.5 11.5 354 9.9
2009-05-28 07:41:07 51°17.494 2°52.502 0.3 11.5 358 10
2009-05-28 07:41:12 51°17.51 2°52.499 0.5 11.5 353 10
2009-05-28 07:41:17 51°17.526 2°52.497 0.4 11.4 358 9.7
2009-05-28 07:41:22 51°17.542 2°52.495 0.8 11.4 354 9.8
2009-05-28 07:41:27 51°17.557 2°52.493 1.1 11.4 356 10
2009-05-28 07:41:32 51°17.573 2°52.491 1 11.5 357 10
2009-05-28 07:41:37 51°17.589 2°52.488 0.3 11.4 354 9.9
2009-05-28 07:41:43 51°17.608 2°52.487 0.9 11.4 357 10
2009-05-28 07:41:47 51°17.621 2°52.484 0.1 11.4 354 9.8
2009-05-28 07:41:52 51°17.637 2°52.484 1.5 11.4 358 9.7
2009-05-28 07:41:57 51°17.652 2°52.481 0.9 11.4 355 9.5
2009-05-28 07:42:03 51°17.671 2°52.48 1.6 11.4 357 9.9
2009-05-28 07:42:08 51°17.687 2°52.478 2.3 11.5 357 9.9
2009-05-28 07:42:12 51°17.7 2°52.477 1.8 11.5 358 9.6
2009-05-28 07:42:17 51°17.716 2°52.477 2.6 11.5 357 9.8
2009-05-28 07:42:22 51°17.732 2°52.475 2.5 11.4 359 9.5
2009-05-28 07:42:28 51°17.751 2°52.474 3.1 11.5 357 9.6
2009-05-28 07:42:32 51°17.763 2°52.474 3 11.3 -999 9.6
2009-05-28 07:42:36 51°17.776 2°52.473 3 11.5 356 9.8
2009-05-28 07:42:42 51°17.795 2°52.471 3 11.4 357 9.8
2009-05-28 07:42:47 51°17.811 2°52.47 2.3 11.4 358 9.5
2009-05-28 07:42:52 51°17.827 2°52.47 4 11.4 358 9.8
2009-05-28 07:42:57 51°17.843 2°52.468 3.3 11.4 357 9.8
2009-05-28 07:43:02 51°17.859 2°52.467 3.1 11.5 357 10
2009-05-28 07:43:07 51°17.874 2°52.466 3 11.5 358 9.9
2009-05-28 07:43:12 51°17.89 2°52.465 3 11.5 356 9.8
2009-05-28 07:43:17 51°17.906 2°52.463 2.6 11.5 357 10.1
2009-05-28 07:43:23 51°17.925 2°52.462 2.4 11.5 358 10.1
2009-05-28 07:43:27 51°17.938 2°52.461 3 11.4 357 9.7
2009-05-28 07:43:32 51°17.954 2°52.462 4.2 11.4 3 9.9
2009-05-28 07:43:37 51°17.97 2°52.462 6.4 11.4 3 9.9
2009-05-28 07:43:43 51°17.989 2°52.465 9.1 11.3 4 9.8
2009-05-28 07:43:47 51°18.001 2°52.467 9.9 11.3 6 10.1
2009-05-28 07:43:52 51°18.017 2°52.47 11.7 11.3 6 10
2009-05-28 07:43:57 51°18.032 2°52.473 11.7 11.3 8 9.8
2009-05-28 07:44:03 51°18.051 2°52.478 13.8 11.2 8 9.9
2009-05-28 07:44:07 51°18.063 2°52.481 13.1 11.2 10 10
2009-05-28 07:44:12 51°18.078 2°52.485 15.5 11.3 10 10.1
2009-05-28 07:44:17 51°18.094 2°52.489 15.8 11.2 10 10
2009-05-28 07:44:23 51°18.112 2°52.495 15.8 11.2 11 10
2009-05-28 07:44:27 51°18.125 2°52.498 15.4 11.2 9 10.1
2009-05-28 07:44:32 51°18.14 2°52.503 16.4 11.3 12 10.4
2009-05-28 07:44:37 51°18.156 2°52.506 15.7 11.3 8 10.1
2009-05-28 07:44:43 51°18.174 2°52.513 16.8 11.2 13 10.1
2009-05-28 07:44:48 51°18.189 2°52.518 17 11.3 10 10.2
2009-05-28 07:44:52 51°18.201 2°52.522 17.4 11.3 13 10.3
2009-05-28 07:44:57 51°18.217 2°52.527 17 11.2 11 10.3
2009-05-28 07:45:02 51°18.232 2°52.532 17.3 11.3 13 10.3
2009-05-28 07:45:07 51°18.247 2°52.536 16.5 11.4 8 10.3
2009-05-28 07:45:12 51°18.263 2°52.542 16.8 11.2 15 10.4
2009-05-28 07:45:17 51°18.278 2°52.547 17.9 11.3 11 10.2
2009-05-28 07:45:23 51°18.296 2°52.554 18.2 11.3 14 10.4
2009-05-28 07:45:28 51°18.311 2°52.559 18.8 11.2 14 10.3
2009-05-28 07:45:32 51°18.323 2°52.566 20.5 11.2 16 10.5
2009-05-28 07:45:37 51°18.338 2°52.572 21.3 11.3 15 10.6
2009-05-28 07:45:43 51°18.357 2°52.58 19.8 11.2 16 10.7
2009-05-28 07:45:47 51°18.368 2°52.585 21.2 11.2 16 10.4
2009-05-28 07:45:52 51°18.384 2°52.592 21.4 11.3 16 10.3
2009-05-28 07:45:57 51°18.399 2°52.599 21.9 11.2 17 10.6
2009-05-28 07:46:03 51°18.416 2°52.607 22.1 11.2 16 10.5
2009-05-28 07:46:07 51°18.428 2°52.614 22.9 11.3 18 10.7
2009-05-28 07:46:12 51°18.444 2°52.619 21.5 11.2 15 10.5
2009-05-28 07:46:17 51°18.458 2°52.628 23 11.2 18 10.5
2009-05-28 07:46:23 51°18.476 2°52.635 21.9 11.3 15 10.5
2009-05-28 07:46:28 51°18.491 2°52.643 21.8 11.2 17 10.6
2009-05-28 07:46:32 51°18.503 2°52.648 22.3 11.2 16 10.6
2009-05-28 07:46:37 51°18.518 2°52.655 22.6 11.2 15 10.7
2009-05-28 07:46:43 51°18.536 2°52.664 22.7 11.2 18 10.7
2009-05-28 07:46:48 51°18.551 2°52.67 22.5 11.3 15 10.4
2009-05-28 07:46:52 51°18.563 2°52.676 22.2 11.3 16 10.6
2009-05-28 07:46:57 51°18.578 2°52.683 21.1 11.2 17 10.9
2009-05-28 07:47:03 51°18.596 2°52.691 22.5 11.3 15 10.7
2009-05-28 07:47:07 51°18.608 2°52.697 21.9 11.3 17 10.9
2009-05-28 07:47:12 51°18.623 2°52.703 21.3 11.2 15 10.8
2009-05-28 07:47:17 51°18.638 2°52.71 21.9 11.2 16 10.8
2009-05-28 07:47:23 51°18.656 2°52.719 21.8 11.2 16 10.9
2009-05-28 07:47:27 51°18.668 2°52.723 21.6 11.3 14 10.9
2009-05-28 07:47:32 51°18.683 2°52.73 21.2 11.4 16 10.9
2009-05-28 07:47:37 51°18.699 2°52.737 21 11.3 15 11
2009-05-28 07:47:42 51°18.714 2°52.743 21.6 11.3 16 11.1
2009-05-28 07:47:47 51°18.729 2°52.749 21.6 11.3 14 10.9
2009-05-28 07:47:52 51°18.744 2°52.756 21.1 11.3 16 11
2009-05-28 07:47:57 51°18.759 2°52.763 21.9 11.3 15 10.9
2009-05-28 07:48:03 51°18.777 2°52.771 21.3 11.2 16 10.9
2009-05-28 07:48:07 51°18.789 2°52.775 21.4 11.3 15 11
2009-05-28 07:48:12 51°18.804 2°52.783 22.3 11.3 16 11.1
2009-05-28 07:48:17 51°18.819 2°52.789 21.1 11.3 14 11
2009-05-28 07:48:23 51°18.838 2°52.796 20.9 11.3 15 11.3
2009-05-28 07:48:27 51°18.85 2°52.802 20.7 11.4 16 11.5
2009-05-28 07:48:32 51°18.865 2°52.807 20.4 11.4 12 11.3
2009-05-28 07:48:37 51°18.88 2°52.814 21 11.3 16 11.2
2009-05-28 07:48:43 51°18.899 2°52.821 20.8 11.3 14 11.1
2009-05-28 07:48:47 51°18.911 2°52.826 20.7 11.3 15 11.3
2009-05-28 07:48:52 51°18.926 2°52.833 21.8 11.3 15 11.5
2009-05-28 07:48:56 51°18.938 2°52.837 20.4 11.3 14 11.3
2009-05-28 07:49:03 51°18.959 2°52.847 21.2 11.3 15 11.5
2009-05-28 07:49:07 51°18.971 2°52.852 20.8 11.3 15 11.8
2009-05-28 07:49:12 51°18.987 2°52.858 21.3 11.3 14 11.7
2009-05-28 07:49:17 51°19.002 2°52.865 21.4 11.3 15 11.7
2009-05-28 07:49:23 51°19.02 2°52.872 21.1 11.4 15 11.8
2009-05-28 07:49:27 51°19.032 2°52.877 20.3 11.3 15 12
2009-05-28 07:49:32 51°19.047 2°52.883 21 11.2 15 11.7
2009-05-28 07:49:37 51°19.062 2°52.89 21.9 11.4 13 11.8
2009-05-28 07:49:42 51°19.078 2°52.895 19.8 11.2 15 11.5
2009-05-28 07:49:48 51°19.096 2°52.904 21.8 11.3 15 11.9
2009-05-28 07:49:52 51°19.108 2°52.907 19.6 11.3 12 11.8
2009-05-28 07:49:57 51°19.123 2°52.915 20.5 11.2 16 12
2009-05-28 07:50:03 51°19.142 2°52.921 20.9 11.3 13 12.2
2009-05-28 07:50:07 51°19.154 2°52.926 20.4 11.2 15 12.2
2009-05-28 07:50:12 51°19.169 2°52.932 20.7 11.2 14 12.3
2009-05-28 07:50:17 51°19.184 2°52.938 20 11.3 13 12.5
2009-05-28 07:50:23 51°19.202 2°52.945 20.2 11.3 14 12.3
2009-05-28 07:50:27 51°19.214 2°52.95 20.5 11.3 13 12.2
2009-05-28 07:50:32 51°19.229 2°52.957 21 11.3 17 12.4
2009-05-28 07:50:37 51°19.245 2°52.962 20.1 11.4 11 12.4
2009-05-28 07:50:43 51°19.263 2°52.97 20.2 11.3 15 12.3
2009-05-28 07:50:47 51°19.275 2°52.974 20.3 11.3 13 12.5
2009-05-28 07:50:52 51°19.29 2°52.98 20.5 11.3 14 12.3
2009-05-28 07:50:58 51°19.308 2°52.988 21.6 11.3 14 12.6
2009-05-28 07:51:03 51°19.324 2°52.994 20.4 11.3 15 12.7
2009-05-28 07:51:08 51°19.339 2°53 21.2 11.3 15 12.6
2009-05-28 07:51:12 51°19.351 2°53.004 21.1 11.4 13 12.7
2009-05-28 07:51:17 51°19.366 2°53.012 21.1 11.4 14 12.7
2009-05-28 07:51:23 51°19.385 2°53.019 20.5 11.4 15 13
2009-05-28 07:51:28 51°19.4 2°53.025 21.2 11.4 15 12.8
2009-05-28 07:51:32 51°19.412 2°53.031 21.5 11.4 15 13
2009-05-28 07:51:36 51°19.425 2°53.036 21 11.4 14 13.1
2009-05-28 07:51:43 51°19.446 2°53.045 21.2 11.5 15 13.2
2009-05-28 07:51:48 51°19.461 2°53.051 20.6 11.4 14 13.1
2009-05-28 07:51:52 51°19.473 2°53.057 21.7 11.3 16 13.2
2009-05-28 07:51:56 51°19.486 2°53.061 20.7 11.3 13 13.1
2009-05-28 07:52:02 51°19.504 2°53.07 21 11.2 16 13.1
2009-05-28 07:52:07 51°19.519 2°53.074 20.6 11.4 11 13.2
2009-05-28 07:52:12 51°19.535 2°53.082 20.1 11.4 19 13.5
2009-05-28 07:52:17 51°19.55 2°53.087 20.4 11.4 10 13.6
2009-05-28 07:52:23 51°19.568 2°53.095 19.5 11.3 16 13.4
2009-05-28 07:52:27 51°19.58 2°53.099 20.3 11.3 12 13.6
2009-05-28 07:52:32 51°19.596 2°53.105 19.3 11.3 17 13.8
2009-05-28 07:52:37 51°19.611 2°53.111 20.4 11.4 11 13.5
2009-05-28 07:52:42 51°19.626 2°53.117 19.2 11.3 15 13.8
2009-05-28 07:52:47 51°19.642 2°53.123 19.2 11.4 14 14.1
2009-05-28 07:52:52 51°19.657 2°53.129 19.7 11.4 14 13.9
2009-05-28 07:52:57 51°19.672 2°53.137 22.1 11.3 18 13.7
2009-05-28 07:53:03 51°19.69 2°53.145 22.6 11.3 16 13.9
2009-05-28 07:53:07 51°19.702 2°53.152 23 11.3 20 14.2
2009-05-28 07:53:12 51°19.717 2°53.16 24.6 11.3 17 13.9
2009-05-28 07:53:17 51°19.732 2°53.168 24 11.4 18 14.1
2009-05-28 07:53:23 51°19.749 2°53.178 24 11.3 19 13.8
2009-05-28 07:53:28 51°19.764 2°53.186 24.7 11.3 19 14.2
2009-05-28 07:53:32 51°19.776 2°53.192 24 11.3 19 14.2
2009-05-28 07:53:37 51°19.791 2°53.201 25.7 11.3 19 14.4
2009-05-28 07:53:43 51°19.809 2°53.211 24.5 11.3 22 14.5
2009-05-28 07:53:48 51°19.823 2°53.22 26.1 11.3 21 14.6
2009-05-28 07:53:52 51°19.835 2°53.227 26.3 11.2 21 14.4
2009-05-28 07:53:57 51°19.849 2°53.236 26.3 11.2 21 14.4
2009-05-28 07:54:03 51°19.866 2°53.247 26.9 11.2 21 14.7
2009-05-28 07:54:08 51°19.881 2°53.256 26.3 11.2 21 14.6
2009-05-28 07:54:12 51°19.893 2°53.263 25.9 11.2 20 14.6
2009-05-28 07:54:17 51°19.907 2°53.272 26.1 11.2 21 14.6
2009-05-28 07:54:23 51°19.925 2°53.281 24.9 11.2 18 14.5
2009-05-28 07:54:27 51°19.936 2°53.289 26.1 11.1 23 14.8
2009-05-28 07:54:32 51°19.951 2°53.296 25.6 11.2 19 15.1
2009-05-28 07:54:37 51°19.965 2°53.305 26 11.1 21 14.8
2009-05-28 07:54:43 51°19.983 2°53.316 26.9 11.1 23 14.8
2009-05-28 07:54:47 51°19.995 2°53.322 26.2 11.2 18 14.9
2009-05-28 07:54:52 51°20.009 2°53.332 26.9 11.1 23 14.9
2009-05-28 07:54:57 51°20.023 2°53.34 25.7 11.2 20 15.1
2009-05-28 07:55:03 51°20.04 2°53.351 26.3 11.2 22 15
2009-05-28 07:55:07 51°20.052 2°53.358 28 11.1 20 14.9
2009-05-28 07:55:13 51°20.069 2°53.369 26.4 11.1 23 15.1
2009-05-28 07:55:17 51°20.08 2°53.376 27.6 11.1 20 15
2009-05-28 07:55:23 51°20.098 2°53.386 26.8 11.1 21 15.1
2009-05-28 07:55:27 51°20.109 2°53.393 26.5 11.1 19 15.1
2009-05-28 07:55:32 51°20.124 2°53.401 25.9 11.2 21 15.1
2009-05-28 07:55:37 51°20.139 2°53.41 26.1 11.2 19 15
2009-05-28 07:55:43 51°20.156 2°53.421 26.2 11.1 23 15.2
2009-05-28 07:55:48 51°20.17 2°53.428 26.1 11.1 17 15.1
2009-05-28 07:55:52 51°20.182 2°53.437 26.8 11.1 24 15.2
2009-05-28 07:55:57 51°20.196 2°53.444 26.6 11.2 19 15.3
2009-05-28 07:56:02 51°20.211 2°53.453 26.6 11 21 15.3
2009-05-28 07:56:07 51°20.225 2°53.463 27.6 11.1 22 15.4
2009-05-28 07:56:12 51°20.239 2°53.47 26.7 11.1 20 15.4
2009-05-28 07:56:17 51°20.254 2°53.479 26.3 11.1 21 15.3
2009-05-28 07:56:22 51°20.268 2°53.487 26.6 11.1 19 15.3
2009-05-28 07:56:28 51°20.285 2°53.498 26.2 11.1 22 15.4
2009-05-28 07:56:32 51°20.297 2°53.505 27.1 11 19 15.4
2009-05-28 07:56:37 51°20.311 2°53.514 26.8 11 24 15.5
2009-05-28 07:56:43 51°20.328 2°53.525 27.7 11 22 15.6
2009-05-28 07:56:48 51°20.342 2°53.534 27.2 11 22 15.4
2009-05-28 07:56:52 51°20.353 2°53.543 27.6 11 24 15.5
2009-05-28 07:56:57 51°20.368 2°53.551 27.5 11.2 22 15.5
2009-05-28 07:57:02 51°20.382 2°53.562 27.3 11.1 23 15.4
2009-05-28 07:57:07 51°20.396 2°53.571 27.2 11.1 23 15.6
2009-05-28 07:57:13 51°20.413 2°53.582 27.3 11.1 23 15.4
2009-05-28 07:57:17 51°20.424 2°53.591 28 11.1 22 15.6
2009-05-28 07:57:23 51°20.442 2°53.601 26.8 11.2 22 15.5
2009-05-28 07:57:27 51°20.453 2°53.609 27.4 11.1 22 15.5
2009-05-28 07:57:32 51°20.467 2°53.618 26.9 11.2 21 15.5
2009-05-28 07:57:37 51°20.482 2°53.628 27.9 11.1 21 15.5
2009-05-28 07:57:43 51°20.499 2°53.639 26.9 11.1 24 15.6
2009-05-28 07:57:47 51°20.51 2°53.647 27.7 11.1 23 15.7
2009-05-28 07:57:52 51°20.524 2°53.655 26.8 11 21 15.4
2009-05-28 07:57:57 51°20.538 2°53.666 27.7 11 24 15.7
2009-05-28 07:58:03 51°20.556 2°53.675 26.4 11.2 19 15.8
2009-05-28 07:58:08 51°20.57 2°53.684 26.9 11 22 15.5
2009-05-28 07:58:12 51°20.582 2°53.691 26.6 11.1 21 15.6
2009-05-28 07:58:17 51°20.596 2°53.7 26.6 11 21 15.6
2009-05-28 07:58:23 51°20.613 2°53.711 27.1 11 24 15.8
2009-05-28 07:58:27 51°20.624 2°53.719 27.7 11 21 15.8
2009-05-28 07:58:32 51°20.638 2°53.728 26.6 11 23 15.5
2009-05-28 07:58:37 51°20.652 2°53.738 27.5 11 21 15.7
2009-05-28 07:58:42 51°20.667 2°53.746 25.8 11 22 15.7
2009-05-28 07:58:48 51°20.684 2°53.757 27.4 11.1 21 15.9
2009-05-28 07:58:52 51°20.696 2°53.763 25.5 11.1 23 15.7
2009-05-28 07:58:57 51°20.709 2°53.774 27.1 11 19 15.6
2009-05-28 07:59:03 51°20.726 2°53.784 26.2 11 24 15.9
2009-05-28 07:59:07 51°20.738 2°53.79 26.4 11 18 15.6
2009-05-28 07:59:12 51°20.752 2°53.799 25.8 11.1 22 15.7
2009-05-28 07:59:17 51°20.766 2°53.808 25.7 11.1 21 16
2009-05-28 07:59:22 51°20.781 2°53.816 25.4 11.1 20 15.7
2009-05-28 07:59:27 51°20.795 2°53.826 25.7 11.1 19 15.7
2009-05-28 07:59:32 51°20.81 2°53.834 24.9 11.1 23 15.9
2009-05-28 07:59:38 51°20.827 2°53.844 26.2 11 20 15.7
2009-05-28 07:59:43 51°20.841 2°53.853 25.3 11 22 15.8
2009-05-28 07:59:48 51°20.856 2°53.862 26.1 11.1 21 15.7
2009-05-28 07:59:52 51°20.867 2°53.869 26.3 11.1 20 15.7
2009-05-28 07:59:58 51°20.885 2°53.879 24.8 11.1 21 15.8
2009-05-28 08:00:03 51°20.899 2°53.888 26.1 11.1 21 15.8
2009-05-28 08:00:08 51°20.913 2°53.896 25.7 11.1 21 16
2009-05-28 08:00:12 51°20.925 2°53.903 25.6 11 20 16
2009-05-28 08:00:16 51°20.937 2°53.909 25 11.1 22 16
2009-05-28 08:00:23 51°20.957 2°53.921 25.2 11.1 19 16
2009-05-28 08:00:27 51°20.968 2°53.929 26 11.1 21 15.8
2009-05-28 08:00:32 51°20.983 2°53.936 24.4 11.1 20 15.9
2009-05-28 08:00:37 51°20.997 2°53.946 25.8 11.2 22 15.9
2009-05-28 08:00:43 51°21.015 2°53.956 26.1 11.2 19 15.8
2009-05-28 08:00:47 51°21.026 2°53.964 26.3 11.1 23 16
2009-05-28 08:00:52 51°21.041 2°53.972 25.6 11.2 20 15.8
2009-05-28 08:00:57 51°21.055 2°53.981 26.2 11.1 22 15.8
2009-05-28 08:01:02 51°21.069 2°53.991 26.6 11.1 22 16
2009-05-28 08:01:08 51°21.086 2°54.001 25.9 11.2 20 15.9
2009-05-28 08:01:12 51°21.097 2°54.009 26.6 11.1 22 15.9
2009-05-28 08:01:17 51°21.112 2°54.016 24.9 11.1 19 16.1
2009-05-28 08:01:23 51°21.129 2°54.029 27.3 11.1 25 15.9
2009-05-28 08:01:27 51°21.141 2°54.035 27.1 11.2 19 15.9
2009-05-28 08:01:32 51°21.155 2°54.044 26 11.1 21 15.8
2009-05-28 08:01:37 51°21.169 2°54.054 26.9 11 23 16
2009-05-28 08:01:42 51°21.184 2°54.061 25.9 11.1 21 16.1
2009-05-28 08:01:47 51°21.198 2°54.072 27.1 11.1 21 16
2009-05-28 08:01:52 51°21.212 2°54.079 26.2 11.1 20 16.1
2009-05-28 08:01:58 51°21.23 2°54.09 25.8 11.1 22 16.2
2009-05-28 08:02:03 51°21.244 2°54.098 25.9 11.2 17 16
2009-05-28 08:02:08 51°21.259 2°54.107 25.4 11.1 22 16.2
2009-05-28 08:02:12 51°21.27 2°54.114 26.1 11.2 20 16
2009-05-28 08:02:18 51°21.288 2°54.123 25.4 11.1 18 16.1
2009-05-28 08:02:23 51°21.302 2°54.132 24.8 11 25 16.2
2009-05-28 08:02:28 51°21.316 2°54.14 26.2 11 17 15.9
2009-05-28 08:02:32 51°21.328 2°54.147 24.8 11.1 23 16.2
2009-05-28 08:02:37 51°21.342 2°54.155 25.5 11.1 16 16
2009-05-28 08:02:43 51°21.36 2°54.166 25.8 11 24 16
2009-05-28 08:02:48 51°21.374 2°54.174 26.1 11 19 16.1
2009-05-28 08:02:52 51°21.385 2°54.181 25.3 11 23 16.1
2009-05-28 08:02:57 51°21.399 2°54.19 26.4 11 22 16
2009-05-28 08:03:03 51°21.416 2°54.203 29.5 10.9 26 16.2
2009-05-28 08:03:08 51°21.43 2°54.212 29.7 11 22 16.2
2009-05-28 08:03:12 51°21.44 2°54.223 31.7 10.9 32 16.3
2009-05-28 08:03:17 51°21.454 2°54.233 32 11 25 16.2
2009-05-28 08:03:22 51°21.467 2°54.246 34.2 11 32 16.3
2009-05-28 08:03:27 51°21.48 2°54.257 34.1 11 29 16
2009-05-28 08:03:32 51°21.493 2°54.27 34.9 11 28 16.1
2009-05-28 08:03:37 51°21.507 2°54.281 35.2 10.9 35 16.2
2009-05-28 08:03:43 51°21.522 2°54.296 36.5 11 27 16
2009-05-28 08:03:47 51°21.533 2°54.306 35.4 11 34 16.3
2009-05-28 08:03:52 51°21.546 2°54.319 36 11 28 16.4
2009-05-28 08:03:57 51°21.559 2°54.332 36.2 11 36 16.3
2009-05-28 08:04:03 51°21.575 2°54.346 36.5 11.1 26 16.1
2009-05-28 08:04:08 51°21.587 2°54.361 37.1 10.9 37 16.3
2009-05-28 08:04:12 51°21.597 2°54.37 36.9 10.9 27 16.3
2009-05-28 08:04:18 51°21.612 2°54.386 36.5 10.9 36 16.3
2009-05-28 08:04:23 51°21.626 2°54.397 36.9 11 27 16.3
2009-05-28 08:04:27 51°21.636 2°54.409 37.1 11 38 16.4
2009-05-28 08:04:32 51°21.649 2°54.421 37.2 11 26 16.2
2009-05-28 08:04:37 51°21.662 2°54.435 37 11 38 16.5
2009-05-28 08:04:43 51°21.678 2°54.448 36.4 11 26 16.2
2009-05-28 08:04:47 51°21.687 2°54.46 36.6 10.9 39 16.3
2009-05-28 08:04:52 51°21.7 2°54.474 39.6 10.9 33 16.4
2009-05-28 08:04:57 51°21.711 2°54.489 42.1 10.9 44 16.5
2009-05-28 08:05:03 51°21.725 2°54.507 44 11 35 16.2
2009-05-28 08:05:08 51°21.736 2°54.525 45.6 10.9 47 16.2
2009-05-28 08:05:12 51°21.744 2°54.538 48.1 11 41 16.4
2009-05-28 08:05:17 51°21.755 2°54.555 48.3 10.9 48 16.5
2009-05-28 08:05:23 51°21.768 2°54.576 50.3 10.9 45 16.2
2009-05-28 08:05:28 51°21.777 2°54.595 52 10.9 50 16.5
2009-05-28 08:05:32 51°21.786 2°54.608 51 10.8 46 16.4
2009-05-28 08:05:37 51°21.795 2°54.627 52.4 10.7 51 16.3
2009-05-28 08:05:42 51°21.805 2°54.645 53 10.9 47 16.6
2009-05-28 08:05:48 51°21.817 2°54.666 51.7 10.8 51 16.5
2009-05-28 08:05:52 51°21.825 2°54.681 53.1 10.8 47 16.5
2009-05-28 08:05:57 51°21.835 2°54.699 52.6 10.9 51 16.7
2009-05-28 08:06:03 51°21.847 2°54.72 52.6 10.9 47 16.7
2009-05-28 08:06:07 51°21.854 2°54.736 53.8 11 53 16.6
2009-05-28 08:06:12 51°21.865 2°54.753 52.5 11 45 16.5
2009-05-28 08:06:17 51°21.874 2°54.772 52.7 11 55 16.7
2009-05-28 08:06:23 51°21.887 2°54.794 53.9 11.1 45 16.5
2009-05-28 08:06:27 51°21.895 2°54.809 52.2 10.9 51 16.6
2009-05-28 08:06:32 51°21.904 2°54.828 53.4 11 50 16.4
2009-05-28 08:06:37 51°21.914 2°54.846 52.8 11 50 16.4
2009-05-28 08:06:43 51°21.925 2°54.87 54.5 11 52 16.6
2009-05-28 08:06:47 51°21.933 2°54.884 54.5 10.9 51 16.6
2009-05-28 08:06:52 51°21.942 2°54.904 56 10.9 54 16.7
2009-05-28 08:06:57 51°21.951 2°54.922 55.6 10.9 52 16.8
2009-05-28 08:07:03 51°21.962 2°54.946 55.7 11 54 16.8
2009-05-28 08:07:08 51°21.971 2°54.965 56.5 10.9 53 16.8
2009-05-28 08:07:12 51°21.978 2°54.981 56.3 10.8 54 16.7
2009-05-28 08:07:17 51°21.987 2°55 56.7 10.8 54 16.9
2009-05-28 08:07:23 51°21.998 2°55.023 56.3 10.8 53 16.8
2009-05-28 08:07:28 51°22.007 2°55.043 56.9 10.8 55 16.9
2009-05-28 08:07:32 51°22.014 2°55.059 57.6 10.8 55 16.7
2009-05-28 08:07:37 51°22.021 2°55.079 59.4 10.8 58 16.8
2009-05-28 08:07:43 51°22.032 2°55.102 58.9 10.7 59 16.8
2009-05-28 08:07:48 51°22.038 2°55.124 61.8 10.7 62 16.9
2009-05-28 08:07:52 51°22.045 2°55.139 62 10.8 58 16.9
2009-05-28 08:07:57 51°22.051 2°55.161 63 10.8 62 16.9
2009-05-28 08:08:02 51°22.059 2°55.181 63.9 10.7 62 16.9
2009-05-28 08:08:08 51°22.067 2°55.207 64.7 10.8 61 16.9
2009-05-28 08:08:12 51°22.073 2°55.224 65.2 10.8 64 17
2009-05-28 08:08:17 51°22.079 2°55.246 66.2 10.9 63 17.1
2009-05-28 08:08:23 51°22.088 2°55.272 66.1 10.9 63 17.1
2009-05-28 08:08:27 51°22.092 2°55.289 66.9 10.8 66 17.2
2009-05-28 08:08:32 51°22.099 2°55.31 67.2 10.7 64 17.2
2009-05-28 08:08:37 51°22.106 2°55.331 66.4 10.7 63 17.1
2009-05-28 08:08:43 51°22.114 2°55.357 66.9 10.7 64 17.1
2009-05-28 08:08:47 51°22.119 2°55.374 66.7 10.7 64 17.1
2009-05-28 08:08:52 51°22.125 2°55.396 67.7 10.8 66 17.2
2009-05-28 08:08:57 51°22.132 2°55.418 67.5 10.9 64 17.3
2009-05-28 08:09:03 51°22.139 2°55.444 67.5 10.8 65 17
2009-05-28 08:09:08 51°22.145 2°55.465 67.8 10.8 65 17.3
2009-05-28 08:09:12 51°22.151 2°55.482 66.5 10.7 62 17.3
2009-05-28 08:09:17 51°22.157 2°55.504 66.9 10.7 68 17.4
2009-05-28 08:09:23 51°22.165 2°55.53 68 10.8 62 17.2
2009-05-28 08:09:28 51°22.171 2°55.551 67.1 10.7 66 17.1
2009-05-28 08:09:32 51°22.176 2°55.568 66.9 10.8 62 17.2
2009-05-28 08:09:37 51°22.183 2°55.59 66.6 10.8 67 17.1
2009-05-28 08:09:43 51°22.191 2°55.616 67.6 10.8 62 17.2
2009-05-28 08:09:48 51°22.197 2°55.637 66.4 10.7 65 17.1
2009-05-28 08:09:52 51°22.202 2°55.655 67.6 10.9 64 17.3
2009-05-28 08:09:57 51°22.209 2°55.676 66.8 10.7 63 17.3
2009-05-28 08:10:03 51°22.216 2°55.702 67.5 10.7 66 17.2
2009-05-28 08:10:08 51°22.224 2°55.723 67.2 10.8 61 17.3
2009-05-28 08:10:12 51°22.229 2°55.739 65.9 10.5 66 17.2
2009-05-28 08:10:17 51°22.234 2°55.762 68.8 10.7 64 17.4
2009-05-28 08:10:22 51°22.242 2°55.781 65.9 10.6 62 17.4
2009-05-28 08:10:28 51°22.249 2°55.808 67 10.6 66 17.4
2009-05-28 08:10:33 51°22.256 2°55.828 66.5 10.7 60 17.4
2009-05-28 08:10:37 51°22.261 2°55.845 66.8 10.6 67 17.3
2009-05-28 08:10:43 51°22.269 2°55.871 67.6 10.7 62 17.3
2009-05-28 08:10:47 51°22.274 2°55.887 66.8 10.7 64 17.1
2009-05-28 08:10:52 51°22.281 2°55.909 66.8 10.8 64 17.3
2009-05-28 08:10:57 51°22.288 2°55.93 66 10.7 63 17
2009-05-28 08:11:03 51°22.295 2°55.956 67.4 10.8 65 17.1
2009-05-28 08:11:08 51°22.303 2°55.976 65.8 10.8 60 17.1
2009-05-28 08:11:12 51°22.307 2°55.994 66.3 10.7 65 17.1
2009-05-28 08:11:18 51°22.317 2°56.019 66.1 10.7 60 17.1
2009-05-28 08:11:23 51°22.323 2°56.04 65.5 10.6 65 17.1
2009-05-28 08:11:28 51°22.33 2°56.061 66.2 10.7 61 17.2
2009-05-28 08:11:32 51°22.335 2°56.078 65.6 10.8 62 17.1
2009-05-28 08:11:38 51°22.344 2°56.103 64.6 10.8 62 17.1
2009-05-28 08:11:43 51°22.351 2°56.124 65.6 10.7 62 17.1
2009-05-28 08:11:47 51°22.357 2°56.14 64.5 10.9 62 17.3
2009-05-28 08:11:52 51°22.363 2°56.163 65.5 11 63 17.4
2009-05-28 08:11:57 51°22.371 2°56.183 64.7 10.8 61 17.2
2009-05-28 08:12:03 51°22.378 2°56.208 65.4 10.3 66 17
2009-05-28 08:12:07 51°22.383 2°56.225 66.1 10.3 63 17.4
2009-05-28 08:12:12 51°22.39 2°56.245 66.2 10.2 63 17
2009-05-28 08:12:17 51°22.396 2°56.265 66.1 10.4 61 17.2
2009-05-28 08:12:22 51°22.403 2°56.286 65.4 10.5 62 17.3
2009-05-28 08:12:28 51°22.411 2°56.311 65.2 10.6 63 17
2009-05-28 08:12:32 51°22.417 2°56.328 65.6 10.6 61 17.3
2009-05-28 08:12:37 51°22.424 2°56.348 64.9 10.5 62 17.4
2009-05-28 08:12:43 51°22.432 2°56.373 65 10.6 61 17.1
2009-05-28 08:12:47 51°22.437 2°56.39 65.6 10.8 65 17.2
2009-05-28 08:12:52 51°22.445 2°56.411 65.4 10.6 58 17.3
2009-05-28 08:12:57 51°22.451 2°56.431 64.9 10.4 66 17.2
2009-05-28 08:13:02 51°22.458 2°56.452 66.2 10.7 59 17.1
2009-05-28 08:13:07 51°22.466 2°56.472 63.1 10.4 61 17
2009-05-28 08:13:12 51°22.471 2°56.493 65.4 10.4 64 17.2
2009-05-28 08:13:17 51°22.48 2°56.513 64.5 10.8 58 17.3
2009-05-28 08:13:23 51°22.488 2°56.539 64.3 10.7 65 17.2
2009-05-28 08:13:27 51°22.494 2°56.555 65.4 10.6 62 17
2009-05-28 08:13:32 51°22.5 2°56.576 66.4 10.8 61 17.3
2009-05-28 08:13:37 51°22.508 2°56.596 64.1 10.7 61 17.1
2009-05-28 08:13:43 51°22.517 2°56.621 64 10.7 58 17.1
2009-05-28 08:13:47 51°22.524 2°56.636 61.2 10.7 53 17.3
2009-05-28 08:13:52 51°22.532 2°56.656 59.6 10.7 56 17.4
2009-05-28 08:13:57 51°22.542 2°56.674 57.5 10.7 51 17.2
2009-05-28 08:14:03 51°22.553 2°56.696 55.9 10.6 49 17.2
2009-05-28 08:14:08 51°22.563 2°56.713 54.1 10.5 50 17.2
2009-05-28 08:14:12 51°22.571 2°56.727 53.8 10.6 44 17.3
2009-05-28 08:14:17 51°22.583 2°56.742 49 10.6 41 17.1
2009-05-28 08:14:23 51°22.596 2°56.761 47.7 10.7 36 17.3
2009-05-28 08:14:28 51°22.608 2°56.773 43.4 10.7 32 17.2
2009-05-28 08:14:32 51°22.618 2°56.785 40.8 10.6 35 17.2
2009-05-28 08:14:37 51°22.631 2°56.795 38.3 10.8 28 17.3
2009-05-28 08:14:43 51°22.647 2°56.808 36.1 10.8 25 17.4
2009-05-28 08:14:48 51°22.661 2°56.816 30.7 10.8 21 17.3
2009-05-28 08:14:52 51°22.673 2°56.822 27.8 10.8 16 17.2
2009-05-28 08:14:57 51°22.687 2°56.828 24.3 11 14 17.3
2009-05-28 08:15:03 51°22.706 2°56.833 20.6 11 9 17.1
2009-05-28 08:15:07 51°22.717 2°56.836 18.6 11 8 17.4
2009-05-28 08:15:12 51°22.733 2°56.837 14.2 11 5 17.4
2009-05-28 08:15:17 51°22.748 2°56.84 13.2 11.1 3 17.2
2009-05-28 08:15:22 51°22.764 2°56.839 11 11.2 359 17.2
2009-05-28 08:15:28 51°22.782 2°56.84 8.5 11.2 1 17.2
2009-05-28 08:15:32 51°22.795 2°56.836 5.6 11.4 353 17.4
2009-05-28 08:15:38 51°22.814 2°56.836 4.8 11.3 359 17.2
2009-05-28 08:15:43 51°22.829 2°56.831 3 11.5 351 17.2
2009-05-28 08:15:48 51°22.845 2°56.829 1.8 11.4 355 17.2
2009-05-28 08:15:52 51°22.858 2°56.827 1.2 11.5 352 17.3
2009-05-28 08:15:58 51°22.877 2°56.822 359.5 11.5 352 17.1
2009-05-28 08:16:03 51°22.893 2°56.818 0.3 11.6 351 17.1
2009-05-28 08:16:07 51°22.905 2°56.814 359.1 11.7 351 17.2
2009-05-28 08:16:12 51°22.922 2°56.811 359.1 11.7 351 17.2
2009-05-28 08:16:17 51°22.938 2°56.807 358.7 11.6 352 16.8
2009-05-28 08:16:23 51°22.957 2°56.802 359.4 11.6 349 16.8
2009-05-28 08:16:27 51°22.969 2°56.798 357.9 11.6 350 16.7
2009-05-28 08:16:32 51°22.985 2°56.796 359.8 11.5 354 17.1
2009-05-28 08:16:37 51°23.001 2°56.79 358.9 11.6 350 17.3
2009-05-28 08:16:43 51°23.02 2°56.785 358.7 11.6 350 17.2
2009-05-28 08:16:48 51°23.036 2°56.781 359.2 11.5 352 17.1
2009-05-28 08:16:52 51°23.048 2°56.778 359.4 11.6 350 17.1
2009-05-28 08:16:57 51°23.064 2°56.774 359 11.6 352 17
2009-05-28 08:17:03 51°23.083 2°56.77 359.5 11.5 352 16.6
2009-05-28 08:17:08 51°23.099 2°56.766 0.1 11.5 352 17
2009-05-28 08:17:12 51°23.112 2°56.763 0.1 11.5 352 16.8
2009-05-28 08:17:17 51°23.127 2°56.761 1.1 11.5 355 17
2009-05-28 08:17:23 51°23.147 2°56.758 1.4 11.6 353 17
2009-05-28 08:17:28 51°23.163 2°56.754 0.7 11.5 352 16.7
2009-05-28 08:17:32 51°23.175 2°56.753 1.6 11.5 356 16.9
2009-05-28 08:17:37 51°23.191 2°56.749 1.7 11.5 353 16.7
2009-05-28 08:17:43 51°23.21 2°56.747 2.9 11.5 355 16.7
2009-05-28 08:17:47 51°23.223 2°56.744 2 11.5 355 16.8
2009-05-28 08:17:53 51°23.242 2°56.742 3 11.6 355 17
2009-05-28 08:17:57 51°23.255 2°56.74 2.9 11.6 355 17.1
2009-05-28 08:18:03 51°23.274 2°56.738 3.1 11.5 355 17
2009-05-28 08:18:07 51°23.287 2°56.736 3.2 11.5 357 17
2009-05-28 08:18:12 51°23.303 2°56.735 4.5 11.5 356 17.5
2009-05-28 08:18:17 51°23.319 2°56.733 4.1 11.6 355 17.1
2009-05-28 08:18:23 51°23.338 2°56.731 3.1 11.6 357 17.3
2009-05-28 08:18:28 51°23.354 2°56.731 5.8 11.5 -999 17.4
2009-05-28 08:18:32 51°23.367 2°56.73 6.3 11.6 357 17.4
2009-05-28 08:18:37 51°23.383 2°56.73 6.5 11.5 2 17.2
2009-05-28 08:18:43 51°23.402 2°56.73 7.5 11.6 -999 17.3
2009-05-28 08:18:47 51°23.415 2°56.73 7.7 11.5 2 17.2
2009-05-28 08:18:52 51°23.431 2°56.731 8.2 11.5 -999 17.4
2009-05-28 08:18:57 51°23.447 2°56.732 8.4 11.5 3 17.4
2009-05-28 08:19:03 51°23.466 2°56.732 9 11.5 1 17.5
2009-05-28 08:19:08 51°23.482 2°56.733 9.1 11.5 2 17.6
2009-05-28 08:19:12 51°23.495 2°56.734 9.4 11.6 3 17.6
2009-05-28 08:19:17 51°23.511 2°56.735 10 11.6 2 17.5
2009-05-28 08:19:23 51°23.53 2°56.737 9.9 11.5 4 17.2
2009-05-28 08:19:27 51°23.543 2°56.739 10.8 11.5 3 17.9
2009-05-28 08:19:32 51°23.559 2°56.739 10.2 11.5 3 17.2
2009-05-28 08:19:37 51°23.574 2°56.742 10.7 11.5 4 15.6
2009-05-28 08:19:43 51°23.594 2°56.742 10.3 11.5 2 16.6
2009-05-28 08:19:47 51°23.607 2°56.744 10.1 11.5 4 16.9
2009-05-28 08:19:52 51°23.622 2°56.745 9.9 11.5 2 18
2009-05-28 08:19:57 51°23.638 2°56.746 9.7 11.4 5 17.4
2009-05-28 08:20:03 51°23.658 2°56.748 11.2 11.5 1 16.3
2009-05-28 08:20:07 51°23.67 2°56.749 9.5 11.5 4 15
2009-05-28 08:20:13 51°23.689 2°56.751 10 11.5 4 16
2009-05-28 08:20:17 51°23.702 2°56.753 10.5 11.6 3 16.4
2009-05-28 08:20:23 51°23.721 2°56.754 9 11.5 4 15.2
2009-05-28 08:20:27 51°23.734 2°56.756 11 11.5 5 14.2
2009-05-28 08:20:32 51°23.75 2°56.755 8.6 11.6 358 16.5
2009-05-28 08:20:37 51°23.766 2°56.758 8.8 11.5 7 16.4
2009-05-28 08:20:43 51°23.785 2°56.76 10.2 11.5 2 15.9
2009-05-28 08:20:48 51°23.801 2°56.761 8.2 11.5 4 15.1
2009-05-28 08:20:52 51°23.814 2°56.763 10 11.5 4 13.4
2009-05-28 08:20:57 51°23.829 2°56.763 9.2 11.5 1 15.9
2009-05-28 08:21:03 51°23.849 2°56.765 8.2 11.5 2 15.8
2009-05-28 08:21:08 51°23.865 2°56.765 8.5 11.5 2 14.7
2009-05-28 08:21:12 51°23.877 2°56.766 9.1 11.4 2 12.8
2009-05-28 08:21:17 51°23.893 2°56.767 8.8 11.4 3 14.5
2009-05-28 08:21:22 51°23.909 2°56.769 9.4 11.5 4 15.2
2009-05-28 08:21:28 51°23.928 2°56.771 10.6 11.4 3 15.3
2009-05-28 08:21:32 51°23.94 2°56.771 9.2 11.4 4 13.6
2009-05-28 08:21:37 51°23.956 2°56.774 10.7 11.4 4 13.6
2009-05-28 08:21:43 51°23.975 2°56.775 9.9 11.4 2 14.4
2009-05-28 08:21:48 51°23.991 2°56.778 10.8 11.3 6 13.7
2009-05-28 08:21:52 51°24.004 2°56.778 10.2 11.4 2 12.1
2009-05-28 08:21:57 51°24.019 2°56.779 9.5 11.4 2 11.9
2009-05-28 08:22:03 51°24.038 2°56.78 9.2 11.3 3 14.1
2009-05-28 08:22:07 51°24.051 2°56.781 10 11.3 4 14.6
2009-05-28 08:22:12 51°24.066 2°56.784 11.3 11.4 5 14.8
2009-05-28 08:22:17 51°24.082 2°56.785 10.2 11.4 2 14.8
2009-05-28 08:22:23 51°24.101 2°56.788 11 11.4 7 15.2
2009-05-28 08:22:27 51°24.114 2°56.789 11.1 11.5 3 14.6
2009-05-28 08:22:32 51°24.129 2°56.79 10.7 11.5 3 13.4
2009-05-28 08:22:37 51°24.145 2°56.792 10.4 11.4 4 13.9
2009-05-28 08:22:43 51°24.164 2°56.794 10.5 11.5 3 15.7
2009-05-28 08:22:47 51°24.177 2°56.795 10.2 11.5 4 16.4
2009-05-28 08:22:52 51°24.193 2°56.797 10.2 11.5 4 16.4
2009-05-28 08:22:57 51°24.209 2°56.799 11 11.5 4 16.5
2009-05-28 08:23:03 51°24.228 2°56.801 11 11.4 4 16.8
2009-05-28 08:23:08 51°24.244 2°56.802 10 11.5 3 16.7
2009-05-28 08:23:12 51°24.256 2°56.803 10.2 11.5 4 16.3
2009-05-28 08:23:17 51°24.272 2°56.805 10.3 11.5 3 15.7
2009-05-28 08:23:23 51°24.292 2°56.806 10 11.5 4 14.9
2009-05-28 08:23:27 51°24.304 2°56.807 10.3 11.5 2 13.4
2009-05-28 08:23:32 51°24.32 2°56.809 10.2 11.4 3 14.4
2009-05-28 08:23:37 51°24.336 2°56.81 9.9 11.4 3 16
2009-05-28 08:23:43 51°24.355 2°56.811 10.3 11.4 3 16.5
2009-05-28 08:23:48 51°24.37 2°56.813 11 11.4 5 16.5
2009-05-28 08:23:52 51°24.383 2°56.814 11 11.5 2 17
2009-05-28 08:23:57 51°24.399 2°56.816 10.2 11.4 5 17
2009-05-28 08:24:03 51°24.418 2°56.818 10.5 11.4 2 17.2
2009-05-28 08:24:08 51°24.434 2°56.82 10 11.4 4 17.1
2009-05-28 08:24:12 51°24.447 2°56.82 9.6 11.5 2 17.4
2009-05-28 08:24:17 51°24.462 2°56.822 9.7 11.5 4 17.6
2009-05-28 08:24:23 51°24.482 2°56.824 10 11.5 3 18
2009-05-28 08:24:27 51°24.494 2°56.826 10.7 11.5 5 18
2009-05-28 08:24:33 51°24.513 2°56.828 10.6 11.5 3 18.3
2009-05-28 08:24:37 51°24.526 2°56.828 10.2 11.4 5 18.3
2009-05-28 08:24:43 51°24.545 2°56.832 11.6 11.5 4 18.4
2009-05-28 08:24:48 51°24.561 2°56.833 10.5 11.5 3 18.8
2009-05-28 08:24:52 51°24.574 2°56.835 10.5 11.5 6 19
2009-05-28 08:24:58 51°24.593 2°56.836 10.2 11.6 2 19.1
2009-05-28 08:25:03 51°24.609 2°56.838 10 11.5 4 19.2
2009-05-28 08:25:08 51°24.625 2°56.84 10.2 11.6 3 19.8
2009-05-28 08:25:12 51°24.638 2°56.84 9.4 11.6 3 19.7
2009-05-28 08:25:18 51°24.657 2°56.844 10.4 11.6 5 19.8
2009-05-28 08:25:23 51°24.673 2°56.844 10 11.5 3 20
2009-05-28 08:25:28 51°24.689 2°56.846 9.6 11.5 5 20.1
2009-05-28 08:25:32 51°24.702 2°56.848 10.7 11.6 4 20.1
2009-05-28 08:25:37 51°24.718 2°56.849 10.2 11.6 4 20.6
2009-05-28 08:25:43 51°24.737 2°56.852 10 11.5 4 20.8
2009-05-28 08:25:48 51°24.753 2°56.853 10.6 11.5 3 21.1
2009-05-28 08:25:52 51°24.766 2°56.853 9.5 11.5 3 21
2009-05-28 08:25:57 51°24.782 2°56.856 10 11.6 4 21.2
2009-05-28 08:26:02 51°24.798 2°56.857 9.9 11.6 4 21.5
2009-05-28 08:26:08 51°24.818 2°56.859 10.4 11.6 3 21.7
2009-05-28 08:26:12 51°24.83 2°56.861 10.3 11.6 6 22.1
2009-05-28 08:26:18 51°24.85 2°56.863 10.7 11.6 2 22
2009-05-28 08:26:23 51°24.866 2°56.866 10.4 11.6 6 22.1
2009-05-28 08:26:27 51°24.879 2°56.867 11.4 11.6 3 22.3
2009-05-28 08:26:32 51°24.895 2°56.868 9.8 11.5 3 22.2
2009-05-28 08:26:37 51°24.91 2°56.871 11 11.5 5 22.4
2009-05-28 08:26:43 51°24.93 2°56.873 10.3 11.5 4 22.9
2009-05-28 08:26:47 51°24.942 2°56.875 11.4 11.6 5 22.8
2009-05-28 08:26:52 51°24.959 2°56.876 10.2 11.6 3 22.7
2009-05-28 08:26:57 51°24.974 2°56.879 10.5 11.5 7 22.8
2009-05-28 08:27:03 51°24.994 2°56.881 11 11.6 3 23
2009-05-28 08:27:07 51°25.006 2°56.884 11.2 11.5 5 22.9
2009-05-28 08:27:12 51°25.022 2°56.885 10.2 11.5 5 23.2
2009-05-28 08:27:18 51°25.041 2°56.887 10.2 11.6 3 23
2009-05-28 08:27:23 51°25.057 2°56.889 10.4 11.5 5 23.3
2009-05-28 08:27:28 51°25.073 2°56.891 10.2 11.6 3 23.3
2009-05-28 08:27:32 51°25.086 2°56.891 9.6 11.5 4 23.7
2009-05-28 08:27:38 51°25.105 2°56.894 10.2 11.6 3 23.7
2009-05-28 08:27:43 51°25.121 2°56.895 9 11.6 4 24
2009-05-28 08:27:48 51°25.137 2°56.897 10 11.6 4 24
2009-05-28 08:27:52 51°25.15 2°56.898 9.3 11.6 4 23.8
2009-05-28 08:27:57 51°25.166 2°56.901 10.3 11.6 5 23.9
2009-05-28 08:28:03 51°25.185 2°56.901 9.6 11.5 5 23.9
2009-05-28 08:28:08 51°25.201 2°56.904 11 11.5 5 23.9
2009-05-28 08:28:12 51°25.214 2°56.904 9.5 11.6 3 23.8
2009-05-28 08:28:17 51°25.23 2°56.908 10.1 11.6 5 24
2009-05-28 08:28:23 51°25.249 2°56.909 10.1 11.6 2 23.8
2009-05-28 08:28:28 51°25.266 2°56.911 9.3 11.7 5 23.8
2009-05-28 08:28:32 51°25.278 2°56.912 9.5 11.6 2 23.7
2009-05-28 08:28:37 51°25.294 2°56.915 10.5 11.5 7 23.8
2009-05-28 08:28:42 51°25.31 2°56.915 10 11.6 1 23.8
2009-05-28 08:28:48 51°25.329 2°56.919 10.1 11.5 6 23.6
2009-05-28 08:28:53 51°25.345 2°56.921 10.3 11.6 4 23.1
2009-05-28 08:28:57 51°25.358 2°56.921 9.5 11.5 4 23
2009-05-28 08:29:03 51°25.377 2°56.924 10.7 11.4 4 23.5
2009-05-28 08:29:07 51°25.39 2°56.925 10 11.5 5 23.4
2009-05-28 08:29:12 51°25.406 2°56.927 10.4 11.5 3 22.8
2009-05-28 08:29:18 51°25.425 2°56.929 9.6 11.5 5 23
2009-05-28 08:29:23 51°25.441 2°56.93 9.5 11.5 1 22.6
2009-05-28 08:29:27 51°25.454 2°56.932 10.1 11.5 6 22.8
2009-05-28 08:29:32 51°25.47 2°56.933 10.2 11.5 2 22.4
2009-05-28 08:29:38 51°25.489 2°56.935 9.6 11.5 4 22.1
2009-05-28 08:29:43 51°25.505 2°56.937 10.3 11.6 3 22.2
2009-05-28 08:29:48 51°25.521 2°56.938 9.9 11.5 4 22
2009-05-28 08:29:52 51°25.533 2°56.94 10.4 11.5 5 21.8
2009-05-28 08:29:58 51°25.552 2°56.941 10.5 11.4 2 21.2
2009-05-28 08:30:03 51°25.568 2°56.945 11 11.3 7 21.2
2009-05-28 08:30:07 51°25.581 2°56.945 10.7 11.5 3 21.2
2009-05-28 08:30:12 51°25.596 2°56.947 10.3 11.4 3 20.6
2009-05-28 08:30:17 51°25.612 2°56.949 10.5 11.5 5 20.3
2009-05-28 08:30:22 51°25.628 2°56.95 10.5 11.6 2 20.2
2009-05-28 08:30:28 51°25.647 2°56.953 10.3 11.5 6 19.4
2009-05-28 08:30:32 51°25.66 2°56.954 11 11.5 3 19.4
2009-05-28 08:30:37 51°25.676 2°56.957 11.1 11.5 5 19.1
2009-05-28 08:30:43 51°25.695 2°56.959 10.2 11.5 4 18.9
2009-05-28 08:30:48 51°25.711 2°56.961 10.7 11.4 4 18.4
2009-05-28 08:30:52 51°25.724 2°56.963 11 11.6 4 18.6
2009-05-28 08:30:57 51°25.74 2°56.964 10.2 11.5 4 18
2009-05-28 08:31:03 51°25.759 2°56.967 10.9 11.5 7 17.5
2009-05-28 08:31:07 51°25.771 2°56.969 12.3 11.5 6 16.8
2009-05-28 08:31:13 51°25.79 2°56.975 14.6 11.3 12 16.3
2009-05-28 08:31:17 51°25.802 2°56.978 16 11.4 7 17.2
2009-05-28 08:31:23 51°25.821 2°56.984 15.4 11.2 13 17.3
2009-05-28 08:31:27 51°25.833 2°56.988 17.5 11.3 10 16.8
2009-05-28 08:31:32 51°25.848 2°56.993 17.8 11.3 13 16.5
2009-05-28 08:31:37 51°25.864 2°56.999 18.5 11.3 13 16.3
2009-05-28 08:31:43 51°25.882 2°57.006 19.6 11.4 14 16.4
2009-05-28 08:31:48 51°25.898 2°57.011 19.1 11.3 11 16
2009-05-28 08:31:52 51°25.909 2°57.016 19.8 11.2 16 15.9
2009-05-28 08:31:58 51°25.928 2°57.024 20.4 11.4 14 16
2009-05-28 08:32:03 51°25.943 2°57.028 19.3 11.1 15 15.8
2009-05-28 08:32:08 51°25.958 2°57.037 22.8 11.2 19 15.8
2009-05-28 08:32:12 51°25.971 2°57.039 20.6 11.5 10 15.7
2009-05-28 08:32:17 51°25.985 2°57.049 21.9 11.4 19 15.5
2009-05-28 08:32:23 51°26.004 2°57.054 21.1 11.3 12 14.7
2009-05-28 08:32:28 51°26.019 2°57.062 20.7 11.3 17 14.7
2009-05-28 08:32:32 51°26.031 2°57.066 21.3 11.4 12 15.6
2009-05-28 08:32:37 51°26.046 2°57.073 21.3 11.3 16 16
2009-05-28 08:32:43 51°26.064 2°57.081 21.1 11.3 16 14.2
2009-05-28 08:32:48 51°26.08 2°57.087 22.5 11.5 13 15.1
2009-05-28 08:32:52 51°26.092 2°57.091 20.4 11.2 15 15.7
2009-05-28 08:32:57 51°26.106 2°57.099 21.8 11.1 17 15.9
2009-05-28 08:33:03 51°26.125 2°57.107 22 11.3 15 14.6
2009-05-28 08:33:08 51°26.14 2°57.114 22.1 11.3 16 15.5
2009-05-28 08:33:12 51°26.152 2°57.118 21.4 11.3 15 16
2009-05-28 08:33:18 51°26.17 2°57.127 22.4 11.4 16 16.2
2009-05-28 08:33:22 51°26.183 2°57.131 21 11.4 12 15.9
2009-05-28 08:33:28 51°26.201 2°57.14 21.2 11.5 17 16.2
2009-05-28 08:33:32 51°26.214 2°57.143 20.2 11.6 12 16.4
2009-05-28 08:33:38 51°26.232 2°57.152 21 11.3 17 16.3
2009-05-28 08:33:43 51°26.247 2°57.157 21.1 11.5 12 16.1
2009-05-28 08:33:48 51°26.263 2°57.164 20.3 11.5 14 15.7